BGBW Airport Information

Runway Information
Runway 07 Length 6004 ft width 148 ft
Elevation 11 ft Threshold 0 ft Heading 41
Runway 25 Length 6004 ft Width 148 ft
Elevation 112 ft Threshold 0 ft Heading 221
Airport Frequencies
Type AFIS Name AFIS Frequency 119.1 MHZ
Airport Navaids
Type NDB Name Narsarsuaq Frequency 359 KHZ
Type DME Name Narsarsuaq Frequency 111850 KHZ
Airport Weather Information & NOTAM
ADDS - METARS form results

(1621 UTC 03 December 2021)
Data provider http://aviationweather.gov/metar/data/
 
METAR text: BGBW 031550Z 05007KT 9999 FEW200 M08/M16 Q1008
Conditions at: BGBW (NARSSARSSUAQ , GL) observed 1550 UTC 03 December 2021
Temperature: -8.0°C (18°F)
Dewpoint: -16.0°C ( 3°F) [RH = 53%]
Pressure (altimeter): 29.76 inches Hg (1008.0 mb)
Winds: from the NE (50 degrees) at 8 MPH (7 knots; 3.6 m/s)
Visibility: 6 or more miles (10+ km)
Ceiling: at least 12,000 feet AGL
Clouds: few clouds at 20000 feet AGL
Weather: no significant weather observed at this time

Forecast for: BGBW (NARSSARSSUAQ , GL)
Text: TAF BGBW 031420Z 0315/0320 07005KT 9999 FEW200
Forecast period: 1500 to 2000 UTC 03 December 2021
Forecast type: FROM: standard forecast or significant change
Winds: from the ENE (70 degrees) at 6 MPH (5 knots; 2.6 m/s)
Visibility: 6 or more miles (10+ km)
Ceiling: at least 12,000 feet AGL
Clouds: few clouds at 20000 feet AGL
Weather: no significant weather forecast for this period